Terminal Aerodrome Forecast
Issued by NWS Mt. Holly, NJ

Home | Current Version | Previous Version | Text Only | Print | Product List | Glossary On
Versions: 1 2 3 4 5 6 7 8 9 10 11 12 13 14
000
FTUS41 KPHI 222334
TAFILG
TAF
KILG 222334Z 2300/2324 14005KT P6SM SCT080 BKN200
     FM230600 16006KT P6SM SCT025 OVC100 WS020/20035KT
     FM230900 16007KT 6SM -SHRA OVC015 WS020/20040KT
     FM231100 17012G22KT 3SM SHRA OVC009 WS020/20050KT
     FM231500 19016G26KT 3SM SHRA OVC015 WS020/21040KT
     FM231700 22016G26KT 4SM SHRA OVC020 WS020/24040KT
     FM231800 22012G22KT 5SM -SHRA BKN025
     FM232000 26010KT P6SM BKN035=

USA.gov is the U.S. government's official web portal to all federal, state and local government web resources and services.